Time;durP1;ratioP1;P1;durP2;ratioP2;P2;SDS_P1;SDS_P2;PMS_P1;PMS_P2;Temp;Humidity;BMP_temperature;BMP_pressure;BME280_temperature;BME280_humidity;BME280_pressure;Samples;Min_cycle;Max_cycle;Signal;HPM_P1;HPM_P2
2022/09/19 00:01:07;;;;;;;;;;;;;;;11.51;100.00;101574.25;5057200;28;19975;-71
2022/09/19 00:03:36;;;;;;;;;;;;;;;11.48;100.00;101582.34;5056370;28;19964;-71
2022/09/19 00:06:02;;;;;;;;;;;;;;;11.44;100.00;101583.34;5055506;28;19932;-72
2022/09/19 00:08:27;;;;;;;;;;;;;;;11.40;100.00;101587.91;5056449;28;19979;-72
2022/09/19 00:10:53;;;;;;;;;;;;;;;11.37;100.00;101584.50;5058518;28;19936;-72
2022/09/19 00:13:18;;;;;;;;;;;;;;;11.36;100.00;101585.44;5056723;28;20995;-71
2022/09/19 00:15:47;;;;;;;;;;;;;;;11.35;100.00;101589.00;5057072;28;19939;-72
2022/09/19 00:18:13;;;;;;;;;;;;;;;11.36;100.00;101591.63;5056571;28;19977;-71
2022/09/19 00:20:39;;;;;;;;;;;;;;;11.38;100.00;101596.84;5058253;28;19936;-72
2022/09/19 00:25:56;;;;;;;;;;;;;;;11.41;100.00;101607.34;5058840;28;19924;-72
2022/09/19 00:28:25;;;;;;;;;;;;;;;11.44;100.00;101611.69;5055839;28;20749;-74
2022/09/19 00:30:50;;;;;;;;;;;;;;;11.40;100.00;101606.47;5057826;28;19928;-74
2022/09/19 00:33:16;;;;;;;;;;;;;;;11.34;100.00;101600.53;5056971;28;19933;-73
2022/09/19 00:35:41;;;;;;;;;;;;;;;11.30;100.00;101588.31;5056704;28;20015;-73
2022/09/19 00:38:07;;;;;;;;;;;;;;;11.26;100.00;101591.09;5056563;28;20022;-73
2022/09/19 00:40:32;;;;;;;;;;;;;;;11.21;100.00;101586.84;5058189;28;20029;-73
2022/09/19 00:43:00;;;;;;;;;;;;;;;11.16;100.00;101599.44;5056931;28;19939;-73
2022/09/19 00:45:25;;;;;;;;;;;;;;;11.11;100.00;101603.09;5058548;28;20602;-73
2022/09/19 00:47:51;;;;;;;;;;;;;;;11.08;100.00;101607.63;5056748;28;19932;-72
2022/09/19 00:50:21;;;;;;;;;;;;;;;11.03;100.00;101605.16;5054582;28;19928;-72
2022/09/19 00:52:52;;;;;;;;;;;;;;;10.98;100.00;101613.28;5055955;28;20003;-73
2022/09/19 00:55:17;;;;;;;;;;;;;;;10.96;100.00;101606.28;5037943;28;19928;-72
2022/09/19 00:57:49;;;;;;;;;;;;;;;10.92;100.00;101608.19;5054188;28;20773;-72
2022/09/19 01:00:15;;;;;;;;;;;;;;;10.88;100.00;101614.50;5054316;28;19933;-72
2022/09/19 01:02:41;;;;;;;;;;;;;;;10.84;100.00;101619.03;5056979;28;19935;-72
2022/09/19 01:05:07;;;;;;;;;;;;;;;10.80;100.00;101614.78;5054817;28;19932;-73
2022/09/19 01:07:32;;;;;;;;;;;;;;;10.79;100.00;101617.47;5056688;28;19924;-73
2022/09/19 01:10:01;;;;;;;;;;;;;;;10.78;100.00;101624.53;5057897;28;20063;-72
2022/09/19 01:12:44;;;;;;;;;;;;;;;10.78;100.00;101627.19;5055233;28;19946;-73
2022/09/19 01:15:10;;;;;;;;;;;;;;;10.79;100.00;101628.91;5055629;28;19964;-72
2022/09/19 01:17:42;;;;;;;;;;;;;;;10.79;100.00;101628.06;5056212;28;21207;-73
2022/09/19 01:20:21;;;;;;;;;;;;;;;10.79;100.00;101628.06;5055356;28;19935;-73
2022/09/19 01:22:49;;;;;;;;;;;;;;;10.81;100.00;101634.16;5055181;28;19931;-72
2022/09/19 01:25:20;;;;;;;;;;;;;;;10.84;100.00;101626.13;5072489;28;19963;-72
2022/09/19 01:27:52;;;;;;;;;;;;;;;10.93;100.00;101627.56;5055342;28;19967;-72
2022/09/19 01:30:17;;;;;;;;;;;;;;;10.99;100.00;101625.59;5056390;28;20295;-73
2022/09/19 01:32:53;;;;;;;;;;;;;;;11.03;100.00;101625.47;5054514;28;19928;-73
2022/09/19 01:35:24;;;;;;;;;;;;;;;11.05;100.00;101635.09;5055525;28;19936;-73
2022/09/19 01:37:50;;;;;;;;;;;;;;;11.08;100.00;101631.50;5056484;28;20473;-73
2022/09/19 01:40:16;;;;;;;;;;;;;;;11.10;100.00;101621.69;5054990;28;19928;-72
2022/09/19 01:42:48;;;;;;;;;;;;;;;11.14;100.00;101631.28;5053463;28;19928;-73
2022/09/19 01:45:14;;;;;;;;;;;;;;;11.14;100.00;101624.19;5055985;28;19973;-72
2022/09/19 01:47:54;;;;;;;;;;;;;;;11.13;100.00;101632.19;5057610;28;20369;-72
2022/09/19 01:50:19;;;;;;;;;;;;;;;11.14;100.00;101624.19;5056126;28;20322;-72
2022/09/19 01:53:03;;;;;;;;;;;;;;;11.13;100.00;101627.75;5055615;28;19933;-73
2022/09/19 01:55:47;;;;;;;;;;;;;;;11.14;100.00;101628.63;5056567;28;20059;-73
2022/09/19 01:58:17;;;;;;;;;;;;;;;11.16;100.00;101625.94;5054449;28;19928;-73
2022/09/19 02:01:02;;;;;;;;;;;;;;;11.17;100.00;101628.50;5055220;28;19924;-73
2022/09/19 02:03:36;;;;;;;;;;;;;;;11.17;100.00;101620.56;5057570;28;19971;-73
2022/09/19 02:06:06;;;;;;;;;;;;;;;11.17;100.00;101623.19;5055179;28;20058;-73
2022/09/19 02:08:41;;;;;;;;;;;;;;;11.14;100.00;101624.19;5055053;28;19931;-72
2022/09/19 02:11:10;;;;;;;;;;;;;;;11.15;100.00;101630.34;5053709;28;20030;-72
2022/09/19 02:13:36;;;;;;;;;;;;;;;11.17;100.00;101630.31;5056259;28;19936;-72
2022/09/19 02:16:04;;;;;;;;;;;;;;;11.16;100.00;101633.88;5053955;28;19936;-72
2022/09/19 02:18:31;;;;;;;;;;;;;;;11.13;100.00;101632.19;5054470;28;20497;-72
2022/09/19 02:21:05;;;;;;;;;;;;;;;11.12;100.00;101627.81;5041516;28;19954;-72
2022/09/19 02:23:31;;;;;;;;;;;;;;;11.09;100.00;101636.75;5054942;28;20437;-72
2022/09/19 02:25:57;;;;;;;;;;;;;;;11.06;100.00;101634.19;5053689;28;19925;-72
2022/09/19 02:28:25;;;;;;;;;;;;;;;11.04;100.00;101640.44;5053377;28;19978;-72
2022/09/19 02:30:50;;;;;;;;;;;;;;;11.00;100.00;101645.00;5052676;28;19924;-72
2022/09/19 02:33:16;;;;;;;;;;;;;;;10.96;100.00;101641.59;5056303;28;20296;-73
2022/09/19 02:35:41;;;;;;;;;;;;;;;10.92;100.00;101652.34;5056961;28;20383;-72
2022/09/19 02:38:09;;;;;;;;;;;;;;;10.92;100.00;101652.34;5055502;28;19924;-72
2022/09/19 02:40:41;;;;;;;;;;;;;;;10.90;100.00;101646.25;5055828;28;19928;-72
2022/09/19 02:43:30;;;;;;;;;;;;;;;10.86;100.00;101645.47;5054584;28;19931;-73
2022/09/19 02:45:55;;;;;;;;;;;;;;;10.83;100.00;101641.16;5054483;28;19935;-72
2022/09/19 02:48:21;;;;;;;;;;;;;;;10.82;100.00;101649.13;5053843;28;19928;-72
2022/09/19 02:50:49;;;;;;;;;;;;;;;10.81;100.00;101645.66;5056093;28;19981;-72
2022/09/19 02:53:21;;;;;;;;;;;;;;;10.82;100.00;101654.44;5055585;28;19928;-72
2022/09/19 02:55:50;;;;;;;;;;;;;;;10.87;100.00;101652.50;5054446;28;20450;-72
2022/09/19 02:58:16;;;;;;;;;;;;;;;10.92;100.00;101660.28;5054564;28;19931;-73
2022/09/19 03:00:45;;;;;;;;;;;;;;;10.93;100.00;101657.59;5053031;28;19921;-71
2022/09/19 03:05:58;;;;;;;;;;;;;;;10.89;100.00;101661.25;5044711;28;20069;-72
2022/09/19 03:08:24;;;;;;;;;;;;;;;10.86;100.00;101662.22;5053860;28;19944;-73
2022/09/19 03:10:49;;;;;;;;;;;;;;;10.84;100.00;101652.63;5054016;28;19924;-72
2022/09/19 03:13:15;;;;;;;;;;;;;;;10.87;100.00;101660.44;5058363;28;19932;-72
2022/09/19 03:15:51;;;;;;;;;;;;;;;10.87;100.00;101657.81;5057009;28;19921;-72
2022/09/19 03:18:17;;;;;;;;;;;;;;;10.85;100.00;101657.84;5056677;28;19925;-72
2022/09/19 03:20:48;;;;;;;;;;;;;;;10.83;100.00;101657.03;5057844;28;19989;-73
2022/09/19 03:23:14;;;;;;;;;;;;;;;10.81;100.00;101656.25;5056750;28;20040;-73
2022/09/19 03:25:40;;;;;;;;;;;;;;;10.81;100.00;101653.59;5055903;28;20051;-73
2022/09/19 03:28:06;;;;;;;;;;;;;;;10.81;100.00;101661.53;5058781;28;19928;-72
2022/09/19 03:30:31;;;;;;;;;;;;;;;10.83;100.00;101658.81;5058933;28;20310;-73
2022/09/19 03:32:59;;;;;;;;;;;;;;;10.84;100.00;101657.94;5059724;28;19929;-73
2022/09/19 03:35:24;;;;;;;;;;;;;;;10.84;100.00;101666.72;5057107;28;19976;-72
2022/09/19 03:37:50;;;;;;;;;;;;;;;10.82;100.00;101665.03;5041889;28;19939;-73
2022/09/19 03:40:15;;;;;;;;;;;;;;;10.85;100.00;101675.53;5058372;28;19940;-72
2022/09/19 03:42:43;;;;;;;;;;;;;;;10.87;100.00;101681.66;5042673;28;19928;-72
2022/09/19 03:45:08;;;;;;;;;;;;;;;10.90;100.00;101693.94;5059084;28;20002;-72
2022/09/19 03:47:33;;;;;;;;;;;;;;;10.95;100.00;101684.91;5057488;28;19932;-73
2022/09/19 03:49:59;;;;;;;;;;;;;;;11.03;100.00;101676.69;5031714;28;19927;-73
2022/09/19 03:52:27;;;;;;;;;;;;;;;11.12;100.00;101686.97;5057252;28;20457;-73
2022/09/19 03:54:53;;;;;;;;;;;;;;;11.14;100.00;101682.50;5057384;28;19921;-72
2022/09/19 03:57:19;;;;;;;;;;;;;;;11.16;100.00;101678.94;5058087;28;19929;-73
2022/09/19 03:59:45;;;;;;;;;;;;;;;11.13;100.00;101675.44;5056638;28;19990;-72
2022/09/19 04:02:10;;;;;;;;;;;;;;;11.13;100.00;101680.75;5056694;28;19985;-73
2022/09/19 04:04:36;;;;;;;;;;;;;;;11.13;100.00;101679.91;5056004;28;19936;-72
2022/09/19 04:07:01;;;;;;;;;;;;;;;11.12;100.00;101679.03;5056655;28;20449;-73
2022/09/19 04:09:27;;;;;;;;;;;;;;;11.12;100.00;101680.81;5056516;28;20031;-73
2022/09/19 04:11:53;;;;;;;;;;;;;;;11.10;100.00;101685.28;5058871;28;19933;-73
2022/09/19 04:14:19;;;;;;;;;;;;;;;11.10;100.00;101687.94;5056763;28;19939;-73
2022/09/19 04:16:44;;;;;;;;;;;;;;;11.09;100.00;101686.22;5057503;28;19936;-73
2022/09/19 04:19:12;;;;;;;;;;;;;;;11.08;100.00;101688.03;5058295;28;19983;-73
2022/09/19 04:21:41;;;;;;;;;;;;;;;11.07;100.00;101686.25;5057716;28;19941;-73
2022/09/19 04:24:07;;;;;;;;;;;;;;;11.03;100.00;101679.34;5054678;28;19956;-73
2022/09/19 04:26:33;;;;;;;;;;;;;;;11.03;100.00;101683.78;5057953;28;20070;-72
2022/09/19 04:29:02;;;;;;;;;;;;;;;11.00;100.00;101690.91;5056076;28;20417;-72
2022/09/19 04:31:28;;;;;;;;;;;;;;;11.03;100.00;101686.41;5056299;28;19932;-71
2022/09/19 04:33:56;;;;;;;;;;;;;;;11.03;100.00;101684.66;5058025;28;19932;-72
2022/09/19 04:36:23;;;;;;;;;;;;;;;11.06;100.00;101684.53;5057380;28;20071;-72
2022/09/19 04:38:49;;;;;;;;;;;;;;;11.10;100.00;101690.59;5040038;28;20051;-72
2022/09/19 04:41:14;;;;;;;;;;;;;;;11.14;100.00;101693.13;5058921;28;20271;-72
2022/09/19 04:43:40;;;;;;;;;;;;;;;11.15;100.00;101699.25;5056030;28;19934;-72
2022/09/19 04:46:06;;;;;;;;;;;;;;;11.13;100.00;101696.66;5057314;28;19929;-72
2022/09/19 04:48:33;;;;;;;;;;;;;;;11.16;100.00;101705.44;5057883;28;20171;-72
2022/09/19 04:50:58;;;;;;;;;;;;;;;11.15;100.00;101709.84;5057236;28;20070;-72
2022/09/19 04:53:24;;;;;;;;;;;;;;;11.17;100.00;101713.31;5056832;28;19929;-72
2022/09/19 04:55:50;;;;;;;;;;;;;;;11.17;100.00;101713.31;5057183;28;20421;-72
2022/09/19 04:58:15;;;;;;;;;;;;;;;11.15;100.00;101715.16;5057465;28;20358;-72
2022/09/19 05:00:42;;;;;;;;;;;;;;;11.09;100.00;101713.59;5038997;28;19928;-73
2022/09/19 05:03:08;;;;;;;;;;;;;;;11.07;100.00;101714.56;5057422;28;21343;-72
2022/09/19 05:05:34;;;;;;;;;;;;;;;11.06;100.00;101718.13;5030319;28;19928;-72
2022/09/19 05:07:59;;;;;;;;;;;;;;;11.02;100.00;101720.03;5057219;28;19932;-72
2022/09/19 05:10:25;;;;;;;;;;;;;;;10.98;100.00;101724.56;5054561;28;20050;-72
2022/09/19 05:12:51;;;;;;;;;;;;;;;10.94;100.00;101730.88;5047453;28;19948;-72
2022/09/19 05:15:16;;;;;;;;;;;;;;;10.94;100.00;101727.34;5056861;28;20375;-72
2022/09/19 05:17:42;;;;;;;;;;;;;;;10.91;100.00;101728.31;5056449;28;19928;-72
2022/09/19 05:20:07;;;;;;;;;;;;;;;10.89;100.00;101735.44;5055798;28;19928;-72
2022/09/19 05:22:32;;;;;;;;;;;;;;;10.86;100.00;101733.75;5056523;28;19939;-72
2022/09/19 05:25:02;;;;;;;;;;;;;;;10.80;100.00;101733.09;5056506;28;19940;-72
2022/09/19 05:27:31;;;;;;;;;;;;;;;10.74;100.00;101736.81;5056945;28;19932;-72
2022/09/19 05:29:58;;;;;;;;;;;;;;;10.69;100.00;101739.59;5056162;28;19977;-72
2022/09/19 05:32:24;;;;;;;;;;;;;;;10.64;100.00;101738.88;5056213;28;19959;-71
2022/09/19 05:34:49;;;;;;;;;;;;;;;10.61;100.00;101744.25;5054004;28;20047;-72
2022/09/19 05:37:14;;;;;;;;;;;;;;;10.57;100.00;101755.88;5056133;28;20303;-71
2022/09/19 05:39:40;;;;;;;;;;;;;;;10.52;100.00;101750.72;5055444;28;19924;-72
2022/09/19 05:42:05;;;;;;;;;;;;;;;10.49;100.00;101748.16;5056232;28;20007;-72
2022/09/19 05:44:31;;;;;;;;;;;;;;;10.49;100.00;101744.63;5057515;28;20284;-72
2022/09/19 05:46:56;;;;;;;;;;;;;;;10.50;100.00;101755.19;5055870;28;20364;-72
2022/09/19 05:49:22;;;;;;;;;;;;;;;10.53;100.00;101755.13;5055902;28;20279;-71
2022/09/19 05:51:47;;;;;;;;;;;;;;;10.58;100.00;101754.97;5038611;28;19955;-71
2022/09/19 05:54:12;;;;;;;;;;;;;;;10.63;100.00;101761.00;5053723;28;19929;-71
2022/09/19 05:56:38;;;;;;;;;;;;;;;10.66;100.00;101758.22;5055450;28;20407;-72
2022/09/19 05:59:06;;;;;;;;;;;;;;;10.69;100.00;101759.94;5054387;28;19928;-72
2022/09/19 06:01:31;;;;;;;;;;;;;;;10.73;100.00;101759.78;5056124;28;20319;-71
2022/09/19 06:03:57;;;;;;;;;;;;;;;10.78;100.00;101766.72;5057201;28;19970;-72
2022/09/19 06:06:22;;;;;;;;;;;;;;;10.83;100.00;101762.13;5056264;28;20480;-72
2022/09/19 06:08:55;;;;;;;;;;;;;;;10.92;100.00;101769.78;5055326;28;19928;-72
2022/09/19 06:11:21;;;;;;;;;;;;;;;10.99;100.00;101766.03;5055729;28;19975;-72
2022/09/19 06:16:30;;;;;;;;;;;;;;;11.10;100.00;101775.41;5054747;28;19932;-72
2022/09/19 06:18:55;;;;;;;;;;;;;;;11.16;100.00;101774.34;5056972;28;19940;-72
2022/09/19 06:21:20;;;;;;;;;;;;;;;11.20;100.00;101775.97;5058209;28;19932;-73
2022/09/19 06:23:46;;;;;;;;;;;;;;;11.25;100.00;101780.22;5053628;28;20391;-72
2022/09/19 06:26:11;;;;;;;;;;;;;;;11.30;100.00;101787.13;5056627;28;20683;-72
2022/09/19 06:28:36;;;;;;;;;;;;;;;11.34;100.00;101784.31;5055767;28;19932;-72
2022/09/19 06:31:03;;;;;;;;;;;;;;;11.38;100.00;101795.69;5056289;28;19939;-73
2022/09/19 06:33:29;;;;;;;;;;;;;;;11.39;100.00;101792.97;5055824;28;19935;-72
2022/09/19 06:35:59;;;;;;;;;;;;;;;11.42;100.00;101802.63;5057161;28;19938;-72
2022/09/19 06:38:24;;;;;;;;;;;;;;;11.43;100.00;101800.84;5053641;28;19928;-71
2022/09/19 06:40:51;;;;;;;;;;;;;;;11.43;100.00;101804.34;5054356;28;20268;-71
2022/09/19 06:43:16;;;;;;;;;;;;;;;11.44;100.00;101805.22;5055686;28;19987;-72
2022/09/19 06:45:42;;;;;;;;;;;;;;;11.47;100.00;101806.00;5051917;28;19936;-72
2022/09/19 06:48:08;;;;;;;;;;;;;;;11.50;100.00;101813.84;5058266;28;19928;-72
2022/09/19 06:50:33;;;;;;;;;;;;;;;11.54;100.00;101803.97;5060601;28;19952;-72
2022/09/19 06:52:59;;;;;;;;;;;;;;;11.58;100.00;101796.78;5058241;28;19978;-72
2022/09/19 06:55:25;;;;;;;;;;;;;;;11.62;100.00;101809.03;5033244;28;19924;-72
2022/09/19 06:58:00;;;;;;;;;;;;;;;11.65;100.00;101809.78;5060331;28;19928;-72
2022/09/19 07:00:26;;;;;;;;;;;;;;;11.67;100.00;101818.56;5058215;28;20377;-72
2022/09/19 07:02:54;;;;;;;;;;;;;;;11.74;100.00;101821.88;5058926;28;20338;-72
2022/09/19 07:05:19;;;;;;;;;;;;;;;11.79;100.00;101814.63;5058997;28;20337;-72
2022/09/19 07:07:45;;;;;;;;;;;;;;;11.81;100.00;101814.56;5044476;28;19947;-72
2022/09/19 07:10:10;;;;;;;;;;;;;;;11.85;100.00;101817.97;5058010;28;20386;-72
2022/09/19 07:12:35;;;;;;;;;;;;;;;11.91;100.00;101820.41;5059926;28;20015;-72
2022/09/19 07:15:01;;;;;;;;;;;;;;;11.95;100.00;101822.03;5058417;28;19934;-73
2022/09/19 07:17:26;;;;;;;;;;;;;;;12.02;100.00;101822.69;5056471;28;20850;-73
2022/09/19 07:19:53;;;;;;;;;;;;;;;12.08;100.00;101828.69;5058842;28;19936;-73
2022/09/19 07:22:20;;;;;;;;;;;;;;;12.16;100.00;101831.03;5058942;28;20990;-73
2022/09/19 07:24:46;;;;;;;;;;;;;;;12.23;100.00;101826.38;5058125;28;19978;-72
2022/09/19 07:27:11;;;;;;;;;;;;;;;12.33;100.00;101833.06;5059028;28;20702;-73
2022/09/19 07:29:37;;;;;;;;;;;;;;;12.40;100.00;101831.06;5056499;28;19975;-72
2022/09/19 07:32:02;;;;;;;;;;;;;;;12.49;100.00;101825.41;5056948;28;19935;-72
2022/09/19 07:34:27;;;;;;;;;;;;;;;12.57;100.00;101835.75;5058757;28;19935;-72
2022/09/19 07:36:53;;;;;;;;;;;;;;;12.67;100.00;101827.41;5056884;28;19925;-73
2022/09/19 07:39:18;;;;;;;;;;;;;;;12.75;100.00;101835.97;5058596;28;20363;-73
2022/09/19 07:41:44;;;;;;;;;;;;;;;12.84;100.00;101837.38;5057717;28;20489;-73
2022/09/19 07:44:09;;;;;;;;;;;;;;;12.90;99.21;101842.44;5056284;28;19932;-72
2022/09/19 07:46:34;;;;;;;;;;;;;;;12.98;97.93;101842.16;5059110;28;19929;-72
2022/09/19 07:49:00;;;;;;;;;;;;;;;13.05;97.97;101838.31;5059446;28;19964;-72
2022/09/19 07:51:26;;;;;;;;;;;;;;;13.13;98.73;101841.53;5056397;28;20393;-72
2022/09/19 07:53:52;;;;;;;;;;;;;;;13.20;97.28;101849.25;5057790;28;20021;-72
2022/09/19 07:56:17;;;;;;;;;;;;;;;13.27;98.02;101846.31;5059221;28;20435;-72
2022/09/19 07:58:43;;;;;;;;;;;;;;;13.31;96.94;101853.22;5056665;28;19928;-72
2022/09/19 08:01:08;;;;;;;;;;;;;;;13.39;98.31;101854.69;5058341;28;19963;-72
2022/09/19 08:03:33;;;;;;;;;;;;;;;13.48;95.58;101858.81;5057167;28;19932;-76
2022/09/19 08:05:59;;;;;;;;;;;;;;;13.54;96.32;101862.09;5055380;28;21342;-73
2022/09/19 08:08:25;;;;;;;;;;;;;;;13.60;96.82;101860.94;5048990;28;20260;-73
2022/09/19 08:10:50;;;;;;;;;;;;;;;13.66;95.46;101860.69;5056013;28;19932;-73
2022/09/19 08:13:16;;;;;;;;;;;;;;;13.71;96.97;101866.69;5056424;28;19932;-74
2022/09/19 08:15:43;;;;;;;;;;;;;;;13.77;96.48;101864.72;5037783;28;19998;-74
2022/09/19 08:18:13;;;;;;;;;;;;;;;13.80;95.97;101864.56;5058120;28;20458;-74
2022/09/19 08:20:39;;;;;;;;;;;;;;;13.86;97.02;101869.63;5046906;28;19928;-74
2022/09/19 08:23:12;;;;;;;;;;;;;;;13.89;95.81;101864.16;5050455;28;19951;-75
2022/09/19 08:25:38;;;;;;;;;;;;;;;13.94;95.43;101871.97;5055632;28;20295;-71
2022/09/19 08:28:04;;;;;;;;;;;;;;;13.95;95.30;101871.88;5058218;28;21660;-72
2022/09/19 08:30:30;;;;;;;;;;;;;;;14.02;95.54;101874.28;5056260;28;19951;-73
2022/09/19 08:32:56;;;;;;;;;;;;;;;14.06;94.35;101875.88;5048326;28;19981;-72
2022/09/19 08:35:22;;;;;;;;;;;;;;;14.10;95.13;101885.44;5046290;28;19958;-73
2022/09/19 08:37:52;;;;;;;;;;;;;;;14.17;96.18;101886.91;5021595;28;19948;-73
2022/09/19 08:40:25;;;;;;;;;;;;;;;14.20;94.70;101884.13;5044825;28;19928;-73
2022/09/19 08:43:09;;;;;;;;;;;;;;;14.21;93.51;101883.19;5045524;28;19939;-73
2022/09/19 08:45:55;;;;;;;;;;;;;;;14.23;91.68;101891.13;5052763;28;19929;-73
2022/09/19 08:48:24;;;;;;;;;;;;;;;14.28;92.33;101890.91;5056471;28;19929;-73
2022/09/19 08:51:06;;;;;;;;;;;;;;;14.33;93.36;101899.56;5055089;28;19960;-73
2022/09/19 08:53:33;;;;;;;;;;;;;;;14.36;92.09;101894.97;5053398;28;19930;-73
2022/09/19 08:56:00;;;;;;;;;;;;;;;14.44;93.49;101893.75;5055366;28;20279;-73
2022/09/19 08:58:26;;;;;;;;;;;;;;;14.54;92.08;101897.72;5031543;28;19935;-73
2022/09/19 09:00:51;;;;;;;;;;;;;;;14.65;90.66;101907.88;5052349;28;19932;-74
2022/09/19 09:03:18;;;;;;;;;;;;;;;14.70;92.93;101919.22;5053086;28;20035;-74
2022/09/19 09:06:04;;;;;;;;;;;;;;;14.49;93.54;101919.25;5054456;28;19928;-73
2022/09/19 09:08:45;;;;;;;;;;;;;;;14.15;94.85;101928.72;5053730;28;19925;-73
2022/09/19 09:11:27;;;;;;;;;;;;;;;13.86;95.32;101922.88;5052951;28;20379;-73
2022/09/19 09:14:19;;;;;;;;;;;;;;;13.60;96.28;101915.94;5056997;28;19982;-74
2022/09/19 09:16:52;;;;;;;;;;;;;;;13.44;94.98;101922.75;5039192;28;19932;-73
2022/09/19 09:19:39;;;;;;;;;;;;;;;13.34;95.08;101920.53;5055834;28;19978;-72
2022/09/19 09:22:20;;;;;;;;;;;;;;;13.24;96.17;101928.00;5055076;28;20379;-73
2022/09/19 09:24:47;;;;;;;;;;;;;;;13.21;98.30;101931.66;5050386;28;19969;-72
2022/09/19 09:27:14;;;;;;;;;;;;;;;13.25;100.00;101940.38;5052375;28;19929;-72
2022/09/19 09:29:44;;;;;;;;;;;;;;;13.24;100.00;101938.63;5054620;28;19978;-72
2022/09/19 09:32:14;;;;;;;;;;;;;;;13.13;100.00;101933.75;5053266;28;19997;-72
2022/09/19 09:34:43;;;;;;;;;;;;;;;12.98;100.00;101927.22;5054963;28;20145;-73
2022/09/19 09:37:20;;;;;;;;;;;;;;;12.87;100.00;101922.31;5053520;28;19925;-72
2022/09/19 09:40:08;;;;;;;;;;;;;;;12.80;100.00;101926.97;5049880;28;19924;-72
2022/09/19 09:42:50;;;;;;;;;;;;;;;12.81;100.00;101935.84;5053703;28;19928;-72
2022/09/19 09:45:16;;;;;;;;;;;;;;;12.87;100.00;101922.31;5053251;28;19931;-72
2022/09/19 09:48:01;;;;;;;;;;;;;;;12.98;100.00;101929.88;5054186;28;19932;-72
2022/09/19 09:50:34;;;;;;;;;;;;;;;13.22;100.00;101929.84;5050538;28;20515;-72
2022/09/19 09:53:03;;;;;;;;;;;;;;;13.39;100.00;101924.72;5051697;28;19987;-73
2022/09/19 09:58:26;;;;;;;;;;;;;;;13.60;100.00;101923.94;5054927;28;20381;-73
2022/09/19 10:04:07;;;;;;;;;;;;;;;13.56;100.00;101928.50;5054650;28;20406;-72
2022/09/19 10:06:48;;;;;;;;;;;;;;;13.53;100.00;101928.66;5051375;28;19997;-72
2022/09/19 10:09:14;;;;;;;;;;;;;;;13.48;100.00;101926.19;5037675;28;19929;-72
2022/09/19 10:12:03;;;;;;;;;;;;;;;13.42;100.00;101915.75;5054478;28;19925;-72
2022/09/19 10:14:29;;;;;;;;;;;;;;;13.46;100.00;101916.53;5053268;28;20113;-72
2022/09/19 10:16:56;;;;;;;;;;;;;;;13.50;100.00;101908.34;5054137;28;19929;-72
2022/09/19 10:19:31;;;;;;;;;;;;;;;13.58;100.00;101916.03;5036525;28;19928;-71
2022/09/19 10:21:57;;;;;;;;;;;;;;;13.63;100.00;101911.41;5053084;28;20718;-70
2022/09/19 10:24:42;;;;;;;;;;;;;;;13.69;100.00;101923.56;5038033;28;19928;-71
2022/09/19 10:27:23;;;;;;;;;;;;;;;13.68;100.00;101930.66;5053683;28;19925;-71
2022/09/19 10:29:50;;;;;;;;;;;;;;;13.61;100.00;101946.97;5050362;28;19924;-72
2022/09/19 10:32:17;;;;;;;;;;;;;;;13.36;100.00;101959.44;5054883;28;19961;-72
2022/09/19 10:34:44;;;;;;;;;;;;;;;13.04;100.00;101956.22;5053136;28;20039;-72
2022/09/19 10:37:14;;;;;;;;;;;;;;;12.74;100.00;101956.44;5036957;28;19924;-72
2022/09/19 10:39:48;;;;;;;;;;;;;;;12.55;100.00;101966.88;5052348;28;20176;-72
2022/09/19 10:42:31;;;;;;;;;;;;;;;12.38;100.00;101972.78;5062449;28;19924;-72
2022/09/19 10:44:58;;;;;;;;;;;;;;;12.22;100.00;101978.63;5051613;28;19983;-71
2022/09/19 10:47:24;;;;;;;;;;;;;;;12.16;100.00;101986.81;5053291;28;19939;-71
2022/09/19 10:49:51;;;;;;;;;;;;;;;12.06;100.00;101973.84;5053328;28;19924;-72
2022/09/19 10:52:22;;;;;;;;;;;;;;;11.98;100.00;101973.19;5053328;28;20509;-71
2022/09/19 10:54:49;;;;;;;;;;;;;;;11.90;100.00;101977.88;5050318;28;19932;-71
2022/09/19 10:57:40;;;;;;;;;;;;;;;11.87;100.00;101983.31;5051036;28;20058;-71
2022/09/19 11:00:20;;;;;;;;;;;;;;;11.88;100.00;101995.66;5054330;28;20325;-72
2022/09/19 11:02:53;;;;;;;;;;;;;;;11.95;100.00;101979.47;5050568;28;20050;-71
2022/09/19 11:05:22;;;;;;;;;;;;;;;12.02;100.00;101974.84;5051943;28;19929;-70
2022/09/19 11:07:49;;;;;;;;;;;;;;;12.11;100.00;101984.31;5052885;28;19935;-73
2022/09/19 11:10:37;;;;;;;;;;;;;;;12.19;100.00;101978.72;5049779;28;20043;-71
2022/09/19 11:13:06;;;;;;;;;;;;;;;12.33;100.00;101987.06;5052119;28;20304;-71
2022/09/19 11:15:33;;;;;;;;;;;;;;;12.36;100.00;101973.72;5050359;28;19928;-71
2022/09/19 11:18:09;;;;;;;;;;;;;;;12.38;100.00;101978.09;5053598;28;20354;-71
2022/09/19 11:20:40;;;;;;;;;;;;;;;12.40;100.00;101973.59;5053325;28;19991;-71
2022/09/19 11:23:13;;;;;;;;;;;;;;;12.40;100.00;101971.81;5042624;28;19977;-71
2022/09/19 11:26:11;;;;;;;;;;;;;;;12.47;100.00;101978.63;5050353;28;19924;-71
2022/09/19 11:28:47;;;;;;;;;;;;;;;12.57;100.00;101979.19;5030613;28;19958;-70
2022/09/19 11:31:22;;;;;;;;;;;;;;;12.68;100.00;101975.28;5052327;28;19935;-71
2022/09/19 11:33:53;;;;;;;;;;;;;;;12.77;100.00;101969.63;5055508;28;20398;-71
2022/09/19 11:36:28;;;;;;;;;;;;;;;12.89;100.00;101973.59;5055943;28;19978;-71
2022/09/19 11:38:55;;;;;;;;;;;;;;;12.97;100.00;101978.66;5056372;28;19972;-72
2022/09/19 11:41:30;;;;;;;;;;;;;;;13.03;100.00;101970.44;5062666;28;20335;-72
2022/09/19 11:44:07;;;;;;;;;;;;;;;13.11;100.00;101970.13;5054177;28;20153;-71
2022/09/19 11:46:42;;;;;;;;;;;;;;;13.14;100.00;101976.19;5064141;28;19932;-72
2022/09/19 11:49:23;;;;;;;;;;;;;;;13.14;100.00;101976.19;5055341;28;19955;-72
2022/09/19 11:51:56;;;;;;;;;;;;;;;13.15;100.00;101982.41;5056975;28;19947;-72
2022/09/19 11:54:40;;;;;;;;;;;;;;;13.12;100.00;101991.34;5055725;28;20314;-72
2022/09/19 11:57:08;;;;;;;;;;;;;;;13.06;100.00;101988.06;5056183;28;19932;-72
2022/09/19 11:59:39;;;;;;;;;;;;;;;12.93;100.00;101998.28;5054413;28;19929;-71
2022/09/19 12:02:22;;;;;;;;;;;;;;;12.67;100.00;101990.34;5057451;28;20067;-72
2022/09/19 12:04:48;;;;;;;;;;;;;;;12.52;100.00;101997.06;5057406;28;20022;-72
2022/09/19 12:07:17;;;;;;;;;;;;;;;12.49;100.00;101989.22;5054788;28;20403;-71
2022/09/19 12:09:51;;;;;;;;;;;;;;;12.49;100.00;101989.22;5055532;28;20473;-72
2022/09/19 12:12:20;;;;;;;;;;;;;;;12.58;100.00;101998.66;5055632;28;19960;-71
2022/09/19 12:14:45;;;;;;;;;;;;;;;12.63;100.00;101975.44;5043668;28;20733;-71
2022/09/19 12:17:32;;;;;;;;;;;;;;;12.71;100.00;101983.13;5043411;28;19947;-72
2022/09/19 12:20:07;;;;;;;;;;;;;;;12.79;100.00;101974.88;5050905;28;19923;-71
2022/09/19 12:22:32;;;;;;;;;;;;;;;12.85;100.00;101982.63;5056226;28;20648;-71
2022/09/19 12:25:29;;;;;;;;;;;;;;;12.94;100.00;101978.75;5054172;28;19940;-71
2022/09/19 12:28:02;;;;;;;;;;;;;;;13.00;100.00;101978.53;5046023;28;20723;-71
2022/09/19 12:30:30;;;;;;;;;;;;;;;13.00;100.00;101987.38;5055820;28;19928;-72
2022/09/19 12:33:25;;;;;;;;;;;;;;;13.06;100.00;101991.59;5055080;28;20099;-71
2022/09/19 12:36:04;;;;;;;;;;;;;;;13.13;100.00;101990.41;5046448;28;19932;-71
2022/09/19 12:38:33;;;;;;;;;;;;;;;13.17;99.85;101984.06;5055558;28;19924;-71
2022/09/19 12:41:11;;;;;;;;;;;;;;;13.20;100.00;101999.06;5055280;28;19971;-70
2022/09/19 12:43:41;;;;;;;;;;;;;;;13.21;100.00;101984.81;5051974;28;19929;-71
2022/09/19 12:46:26;;;;;;;;;;;;;;;13.23;99.25;101992.75;5053156;28;20027;-72
2022/09/19 12:48:52;;;;;;;;;;;;;;;13.24;100.00;101983.84;5072001;28;20637;-71
2022/09/19 12:51:21;;;;;;;;;;;;;;;13.25;99.61;101982.91;5054225;28;19920;-72
2022/09/19 12:53:48;;;;;;;;;;;;;;;13.27;99.05;101989.03;5051457;28;19977;-72